Time;durP1;ratioP1;P1;durP2;ratioP2;P2;SDS_P1;SDS_P2;PMS_P1;PMS_P2;Temp;Humidity;BMP_temperature;BMP_pressure;BME280_temperature;BME280_humidity;BME280_pressure;Samples;Min_cycle;Max_cycle;Signal;HPM_P1;HPM_P2
2023/09/15 00:01:22;;;;;;;8.52;7.03;;;12.10;99.90;;;;;;4926829;29;20454;-81
2023/09/15 00:04:11;;;;;;;11.52;7.10;;;12.10;99.90;;;;;;4933834;29;20058;-82
2023/09/15 00:06:59;;;;;;;8.73;6.47;;;12.10;99.90;;;;;;4939671;29;20070;-80
2023/09/15 00:09:47;;;;;;;8.90;6.65;;;12.10;99.90;;;;;;4939254;29;20059;-81
2023/09/15 00:12:37;;;;;;;7.43;6.20;;;12.00;99.90;;;;;;4941888;29;20058;-81
2023/09/15 00:15:25;;;;;;;11.45;5.80;;;11.90;99.90;;;;;;4941904;29;20170;-81
2023/09/15 00:18:13;;;;;;;8.60;5.85;;;11.70;99.90;;;;;;4938010;29;20047;-81
2023/09/15 00:21:05;;;;;;;7.97;5.95;;;11.60;99.90;;;;;;4938061;29;20129;-80
2023/09/15 00:23:54;;;;;;;8.68;6.00;;;11.60;99.90;;;;;;4936272;29;20062;-81
2023/09/15 00:26:43;;;;;;;8.25;5.70;;;11.60;99.90;;;;;;4930198;29;20725;-82
2023/09/15 00:29:33;;;;;;;10.10;5.45;;;11.60;99.90;;;;;;4934432;29;20069;-82
2023/09/15 00:32:20;;;;;;;12.25;5.88;;;11.70;99.90;;;;;;4940459;29;20047;-80
2023/09/15 00:35:10;;;;;;;8.48;5.50;;;11.80;99.90;;;;;;4936078;29;20047;-79
2023/09/15 00:37:57;;;;;;;7.47;5.60;;;11.70;99.90;;;;;;4933186;29;20082;-82
2023/09/15 00:40:44;;;;;;;7.85;5.75;;;11.60;99.90;;;;;;4937107;29;20473;-81
2023/09/15 00:43:31;;;;;;;10.02;6.03;;;11.60;99.90;;;;;;4937534;29;20454;-80
2023/09/15 00:46:22;;;;;;;9.82;6.50;;;11.60;99.90;;;;;;4931946;29;20048;-82
2023/09/15 00:49:09;;;;;;;9.95;6.75;;;11.50;99.90;;;;;;4942576;29;20051;-81
2023/09/15 00:51:56;;;;;;;7.38;6.07;;;11.40;99.90;;;;;;4935465;29;20437;-80
2023/09/15 00:54:44;;;;;;;8.88;6.07;;;11.30;99.90;;;;;;4932184;29;20043;-82
2023/09/15 00:57:32;;;;;;;10.02;5.93;;;11.30;99.90;;;;;;4941809;29;20040;-80
2023/09/15 01:00:19;;;;;;;13.00;7.72;;;11.40;99.90;;;;;;4936523;29;20071;-82
2023/09/15 01:03:07;;;;;;;12.75;7.45;;;11.50;99.90;;;;;;4933527;29;20362;-81
2023/09/15 01:05:55;;;;;;;10.02;8.18;;;11.50;99.90;;;;;;4929046;29;20043;-81
2023/09/15 01:08:42;;;;;;;12.82;8.95;;;11.50;99.90;;;;;;4941568;29;20051;-83
2023/09/15 01:11:31;;;;;;;9.25;7.50;;;11.50;99.90;;;;;;4942144;29;20382;-82
2023/09/15 01:14:18;;;;;;;17.40;8.40;;;11.50;99.90;;;;;;4944806;29;20063;-81
2023/09/15 01:17:21;;;;;;;8.15;6.53;;;11.30;99.90;;;;;;4937253;29;20418;-81
2023/09/15 01:20:26;;;;;;;9.57;6.68;;;11.30;99.90;;;;;;4924496;29;20052;-81
2023/09/15 01:23:44;;;;;;;13.32;7.50;;;11.20;99.90;;;;;;4949228;28;20374;-81
2023/09/15 01:27:17;;;;;;;20.10;7.95;;;11.30;99.90;;;;;;4922178;29;20071;-82
2023/09/15 01:30:07;;;;;;;9.93;7.85;;;11.40;99.90;;;;;;4911551;29;20063;-81
2023/09/15 01:32:57;;;;;;;14.93;6.85;;;11.30;99.90;;;;;;4930190;29;20043;-81
2023/09/15 01:35:45;;;;;;;10.30;6.88;;;11.30;99.90;;;;;;4933590;29;20047;-82
2023/09/15 01:38:32;;;;;;;11.52;7.57;;;11.10;99.90;;;;;;4938119;29;20044;-80
2023/09/15 01:41:20;;;;;;;9.88;6.63;;;11.10;99.90;;;;;;4928995;29;20433;-81
2023/09/15 01:44:09;;;;;;;15.55;7.80;;;11.00;99.90;;;;;;4934272;29;20812;-81
2023/09/15 01:46:57;;;;;;;17.80;8.13;;;11.10;99.90;;;;;;4939712;29;20346;-81
2023/09/15 01:49:45;;;;;;;11.05;8.27;;;11.20;99.90;;;;;;4927118;29;20051;-82
2023/09/15 01:52:32;;;;;;;13.25;9.40;;;11.20;99.90;;;;;;4935355;29;20494;-83
2023/09/15 01:55:21;;;;;;;11.90;8.45;;;11.30;99.90;;;;;;4938489;29;20521;-81
2023/09/15 01:58:10;;;;;;;12.25;8.45;;;11.30;99.90;;;;;;4959666;29;20154;-80
2023/09/15 02:00:57;;;;;;;15.93;8.52;;;11.30;99.90;;;;;;4950227;29;20052;-81
2023/09/15 02:03:48;;;;;;;13.77;7.90;;;11.20;99.90;;;;;;4955011;28;20075;-80
2023/09/15 02:06:37;;;;;;;11.38;7.82;;;11.10;99.90;;;;;;4946555;29;20051;-83
2023/09/15 02:09:25;;;;;;;12.95;8.18;;;11.00;99.90;;;;;;4936063;28;20068;-80
2023/09/15 02:12:12;;;;;;;12.73;7.95;;;11.10;99.90;;;;;;4930206;29;20047;-82
2023/09/15 02:14:59;;;;;;;13.32;7.72;;;11.10;99.90;;;;;;4933411;29;20054;-82
2023/09/15 02:17:50;;;;;;;13.27;7.70;;;11.20;99.90;;;;;;4938970;29;20039;-82
2023/09/15 02:20:40;;;;;;;10.52;7.53;;;11.20;99.90;;;;;;4938244;29;20052;-82
2023/09/15 02:23:28;;;;;;;13.15;7.70;;;11.10;99.90;;;;;;4935710;29;20746;-82
2023/09/15 02:26:15;;;;;;;13.30;8.15;;;11.00;99.90;;;;;;4932418;29;20153;-81
2023/09/15 02:29:05;;;;;;;15.52;8.63;;;10.90;99.90;;;;;;4935243;29;20048;-81
2023/09/15 02:31:52;;;;;;;14.02;8.38;;;10.90;99.90;;;;;;4924090;29;20063;-83
2023/09/15 02:34:40;;;;;;;14.40;8.15;;;10.80;99.90;;;;;;4936263;29;20074;-81
2023/09/15 02:37:27;;;;;;;12.30;8.45;;;10.70;99.90;;;;;;4937089;29;20047;-81
2023/09/15 02:40:14;;;;;;;12.57;8.48;;;10.60;99.90;;;;;;4931178;29;20370;-81
2023/09/15 02:43:04;;;;;;;11.90;8.02;;;10.60;99.90;;;;;;4941469;29;20048;-82
2023/09/15 02:45:51;;;;;;;16.75;8.13;;;10.60;99.90;;;;;;4933427;29;20054;-83
2023/09/15 02:48:42;;;;;;;12.70;8.55;;;10.60;99.90;;;;;;4937824;29;20370;-82
2023/09/15 02:51:29;;;;;;;15.70;9.20;;;10.70;99.90;;;;;;4926265;29;20048;-82
2023/09/15 02:54:17;;;;;;;15.00;9.75;;;10.80;99.90;;;;;;4944545;28;20389;-83
2023/09/15 02:57:04;;;;;;;15.82;8.73;;;10.80;99.90;;;;;;4934056;29;20052;-81
2023/09/15 02:59:57;;;;;;;13.50;8.45;;;10.80;99.90;;;;;;4933933;29;20464;-82
2023/09/15 03:02:44;;;;;;;14.82;8.50;;;10.80;99.90;;;;;;4942918;29;20059;-80
2023/09/15 03:05:32;;;;;;;13.32;9.00;;;10.80;99.90;;;;;;4933506;29;20040;-82
2023/09/15 03:08:22;;;;;;;12.95;9.75;;;10.80;99.90;;;;;;4934590;29;20040;-82
2023/09/15 03:11:14;;;;;;;11.70;8.73;;;10.70;99.90;;;;;;4938209;29;20044;-80
2023/09/15 03:14:01;;;;;;;13.60;8.52;;;10.70;99.90;;;;;;4934375;29;20446;-81
2023/09/15 03:16:51;;;;;;;13.32;8.43;;;10.70;99.90;;;;;;4945821;28;20047;-82
2023/09/15 03:19:39;;;;;;;11.85;8.13;;;10.50;99.90;;;;;;4938445;29;20051;-81
2023/09/15 03:22:29;;;;;;;13.75;8.05;;;10.40;99.90;;;;;;4937893;29;20062;-81
2023/09/15 03:25:17;;;;;;;13.50;7.75;;;10.30;99.90;;;;;;4939698;29;20536;-82
2023/09/15 03:28:04;;;;;;;12.88;8.88;;;10.30;99.90;;;;;;4941271;29;20712;-81
2023/09/15 03:30:51;;;;;;;14.90;8.98;;;10.20;99.90;;;;;;4939876;29;20057;-84
2023/09/15 03:33:41;;;;;;;10.65;8.40;;;10.20;99.90;;;;;;4939250;29;20054;-82
2023/09/15 03:36:29;;;;;;;15.20;8.32;;;10.20;99.90;;;;;;4945294;29;20051;-81
2023/09/15 03:39:17;;;;;;;15.27;9.43;;;10.20;99.90;;;;;;4936348;29;20055;-81
2023/09/15 03:42:04;;;;;;;14.32;8.57;;;10.20;99.90;;;;;;4950697;29;20051;-81
2023/09/15 03:44:51;;;;;;;13.80;9.15;;;10.20;99.90;;;;;;4933944;29;20052;-81
2023/09/15 03:47:39;;;;;;;14.02;8.40;;;10.20;99.90;;;;;;4941520;29;20528;-81
2023/09/15 03:50:26;;;;;;;14.63;8.23;;;10.10;99.90;;;;;;4941224;29;20466;-82
2023/09/15 03:53:13;;;;;;;15.38;8.20;;;10.10;99.90;;;;;;4945596;29;20054;-81
2023/09/15 03:56:06;;;;;;;12.02;8.27;;;10.10;99.90;;;;;;4937286;29;20098;-80
2023/09/15 03:58:55;;;;;;;13.95;9.07;;;10.20;99.90;;;;;;4939834;29;20099;-81
2023/09/15 04:01:43;;;;;;;11.88;8.73;;;10.30;99.90;;;;;;4951171;29;20055;-81
2023/09/15 04:04:30;;;;;;;12.90;8.73;;;10.40;99.90;;;;;;4933653;29;20062;-81
2023/09/15 04:07:18;;;;;;;17.83;10.48;;;10.30;99.90;;;;;;4936085;29;20045;-81
2023/09/15 04:10:06;;;;;;;18.08;10.20;;;10.40;99.90;;;;;;4950945;29;20392;-82
2023/09/15 04:12:53;;;;;;;18.60;9.88;;;10.40;99.90;;;;;;4949001;29;20046;-81
2023/09/15 04:15:41;;;;;;;23.60;10.68;;;10.40;99.90;;;;;;4949893;29;20392;-82
2023/09/15 04:18:28;;;;;;;14.05;10.35;;;10.40;99.90;;;;;;4943137;29;20047;-81
2023/09/15 04:21:15;;;;;;;15.57;10.82;;;10.40;99.90;;;;;;4940644;29;20084;-83
2023/09/15 04:24:03;;;;;;;15.65;9.50;;;10.30;99.90;;;;;;4953149;29;20059;-82
2023/09/15 04:26:50;;;;;;;15.52;9.40;;;10.40;99.90;;;;;;4935067;29;20055;-80
2023/09/15 04:29:54;;;;;;;12.93;9.25;;;10.30;99.90;;;;;;4938430;29;20054;-81
2023/09/15 04:32:43;;;;;;;17.02;10.23;;;10.30;99.90;;;;;;4943039;29;20059;-79
2023/09/15 04:35:31;;;;;;;17.85;11.07;;;10.30;99.90;;;;;;4949869;29;20202;-82
2023/09/15 04:38:20;;;;;;;17.67;10.13;;;10.40;99.90;;;;;;4938148;29;20055;-81
2023/09/15 04:41:09;;;;;;;18.85;10.00;;;10.40;99.90;;;;;;4930396;29;20043;-82
2023/09/15 04:44:01;;;;;;;15.27;10.18;;;10.40;99.90;;;;;;4933595;29;20474;-81
2023/09/15 04:46:48;;;;;;;10.45;7.70;;;10.40;99.90;;;;;;4938791;29;20051;-81
2023/09/15 04:49:36;;;;;;;18.35;10.02;;;10.40;99.90;;;;;;4936559;29;20135;-82
2023/09/15 04:52:23;;;;;;;17.08;10.05;;;10.30;99.90;;;;;;4950975;29;20050;-83
2023/09/15 04:55:11;;;;;;;15.98;9.55;;;10.20;99.90;;;;;;4930548;29;20079;-81
2023/09/15 04:58:01;;;;;;;17.38;10.85;;;10.20;99.90;;;;;;4927661;29;20393;-82
2023/09/15 05:00:48;;;;;;;17.33;9.35;;;10.10;99.90;;;;;;4938639;29;20051;-82
2023/09/15 05:03:37;;;;;;;17.50;11.38;;;10.10;99.90;;;;;;4922436;29;20115;-81
2023/09/15 05:06:24;;;;;;;16.77;10.15;;;10.10;99.90;;;;;;4920022;29;20383;-81
2023/09/15 05:09:11;;;;;;;18.30;10.50;;;10.10;99.90;;;;;;4934770;29;20052;-83
2023/09/15 05:12:01;;;;;;;16.88;10.50;;;10.20;99.90;;;;;;4932309;29;20044;-81
2023/09/15 05:14:50;;;;;;;14.10;10.25;;;10.20;99.90;;;;;;4936292;29;20111;-82
2023/09/15 05:17:38;;;;;;;15.90;9.48;;;10.30;99.90;;;;;;4941358;29;20054;-81
2023/09/15 05:20:25;;;;;;;18.85;10.07;;;10.30;99.90;;;;;;4935627;29;20063;-81
2023/09/15 05:23:15;;;;;;;20.20;11.43;;;10.40;99.90;;;;;;4941294;29;20043;-83
2023/09/15 05:26:02;;;;;;;15.10;10.98;;;10.30;99.90;;;;;;4937181;29;20063;-83
2023/09/15 05:28:49;;;;;;;18.23;10.68;;;10.50;99.90;;;;;;4948373;29;20070;-85
2023/09/15 05:31:36;;;;;;;18.30;10.82;;;10.50;99.90;;;;;;4953860;28;20043;-84
2023/09/15 05:34:24;;;;;;;14.82;10.05;;;10.50;99.90;;;;;;4946006;29;20453;-82
2023/09/15 05:37:13;;;;;;;17.15;9.75;;;10.60;99.90;;;;;;4942221;29;20051;-85
2023/09/15 05:40:00;;;;;;;15.18;10.60;;;10.60;99.90;;;;;;4946740;28;20382;-82
2023/09/15 05:42:51;;;;;;;17.20;10.27;;;10.70;99.90;;;;;;4938963;29;20130;-83
2023/09/15 05:45:41;;;;;;;19.13;10.77;;;10.80;99.90;;;;;;4935693;29;20343;-83
2023/09/15 05:48:28;;;;;;;18.00;10.10;;;10.90;99.90;;;;;;4934649;29;20055;-82
2023/09/15 05:51:15;;;;;;;16.58;10.30;;;10.90;99.90;;;;;;4935803;29;20058;-82
2023/09/15 05:54:07;;;;;;;20.23;10.07;;;11.00;99.90;;;;;;4940946;29;20066;-82
2023/09/15 05:56:55;;;;;;;13.13;9.07;;;11.00;99.90;;;;;;4929989;29;20054;-83
2023/09/15 05:59:42;;;;;;;14.90;9.07;;;11.00;99.90;;;;;;4928435;29;20062;-82
2023/09/15 06:02:30;;;;;;;12.40;8.20;;;11.10;99.90;;;;;;4934250;29;20047;-82
2023/09/15 06:05:19;;;;;;;14.82;9.05;;;11.30;99.90;;;;;;4939647;29;20067;-84
2023/09/15 06:08:08;;;;;;;12.10;8.38;;;11.40;99.90;;;;;;4930998;29;20044;-83
2023/09/15 06:10:55;;;;;;;16.63;7.78;;;11.40;99.90;;;;;;4938579;29;20127;-81
2023/09/15 06:13:46;;;;;;;17.55;7.28;;;11.50;99.90;;;;;;4937452;29;20048;-83
2023/09/15 06:16:36;;;;;;;17.98;8.00;;;11.60;99.90;;;;;;4939652;29;20182;-82
2023/09/15 06:19:23;;;;;;;11.02;7.20;;;11.60;99.90;;;;;;4939571;29;20458;-85
2023/09/15 06:22:13;;;;;;;13.57;7.07;;;11.80;99.90;;;;;;4930745;29;20059;-83
2023/09/15 06:25:01;;;;;;;10.48;7.10;;;12.00;99.90;;;;;;4935221;29;20521;-85
2023/09/15 06:27:51;;;;;;;12.65;7.47;;;12.10;99.90;;;;;;4936645;29;20385;-84
2023/09/15 06:30:40;;;;;;;10.80;7.28;;;12.20;99.90;;;;;;4939015;29;20050;-85
2023/09/15 06:33:30;;;;;;;16.60;8.52;;;12.30;99.90;;;;;;4941329;29;20128;-85
2023/09/15 06:36:18;;;;;;;13.18;8.30;;;12.40;99.90;;;;;;4937444;29;20040;-85
2023/09/15 06:39:07;;;;;;;10.48;6.65;;;12.70;99.90;;;;;;4946360;28;20135;-84
2023/09/15 06:41:57;;;;;;;19.15;12.50;;;12.80;99.90;;;;;;4942536;29;20476;-84
2023/09/15 06:44:46;;;;;;;11.13;7.45;;;12.90;99.90;;;;;;4927576;29;20444;-85
2023/09/15 06:47:33;;;;;;;15.73;7.20;;;13.10;99.90;;;;;;4946249;29;20058;-86
2023/09/15 06:50:21;;;;;;;10.50;7.40;;;13.30;99.90;;;;;;4935558;29;20067;-81
2023/09/15 06:53:08;;;;;;;14.63;8.68;;;13.50;99.90;;;;;;4943169;29;20048;-84
2023/09/15 06:55:59;;;;;;;12.05;8.30;;;13.70;99.90;;;;;;4938588;29;20040;-83
2023/09/15 06:58:47;;;;;;;14.38;8.00;;;13.90;1.00;;;;;;4942826;29;20047;-86
2023/09/15 07:01:35;;;;;;;12.93;8.43;;;14.10;1.00;;;;;;4938195;29;20051;-87
2023/09/15 07:04:22;;;;;;;12.82;7.85;;;14.30;99.90;;;;;;4939659;29;20430;-89
2023/09/15 07:07:10;;;;;;;12.80;8.63;;;14.50;87.40;;;;;;4935822;29;20485;-88
2023/09/15 07:09:57;;;;;;;14.88;8.40;;;14.60;1.00;;;;;;4944607;29;20047;-85
2023/09/15 07:12:45;;;;;;;11.98;8.93;;;14.90;99.90;;;;;;4938445;29;20044;-88
2023/09/15 07:15:36;;;;;;;14.07;8.98;;;15.00;99.90;;;;;;4940053;29;20055;-88
2023/09/15 07:18:23;;;;;;;11.80;7.93;;;15.20;99.90;;;;;;4938380;29;20040;-87
2023/09/15 07:21:13;;;;;;;15.77;10.38;;;15.40;99.90;;;;;;4950848;29;20326;-84
2023/09/15 07:24:00;;;;;;;14.43;9.40;;;15.60;1.00;;;;;;4934925;29;20050;-87
2023/09/15 07:26:47;;;;;;;15.57;9.57;;;15.70;99.90;;;;;;4936656;29;20462;-87
2023/09/15 07:29:38;;;;;;;17.30;9.93;;;15.90;1.00;;;;;;4942756;29;20059;-88
2023/09/15 07:32:25;;;;;;;12.57;9.60;;;16.00;99.90;;;;;;4950984;29;20156;-88
2023/09/15 07:35:15;;;;;;;14.40;10.52;;;16.10;99.90;;;;;;4946584;29;20043;-87
2023/09/15 07:38:03;;;;;;;15.65;9.25;;;16.30;1.00;;;;;;4944627;29;20488;-86
2023/09/15 07:40:56;;;;;;;17.42;10.13;;;16.50;1.00;;;;;;4943660;29;20056;-88
2023/09/15 07:43:43;;;;;;;11.82;8.73;;;16.60;99.90;;;;;;4935694;29;20362;-86
2023/09/15 07:46:31;;;;;;;15.68;9.15;;;16.60;99.90;;;;;;4942022;29;20124;-89
2023/09/15 07:49:18;;;;;;;13.38;8.82;;;16.60;99.90;;;;;;4940593;29;20043;-87
2023/09/15 07:52:06;;;;;;;16.17;8.95;;;16.70;99.90;;;;;;4950898;28;20035;-89
2023/09/15 07:54:53;;;;;;;14.48;9.27;;;16.90;25.20;;;;;;4932445;29;20052;-90
2023/09/15 07:57:41;;;;;;;12.73;9.55;;;17.10;1.00;;;;;;4941183;29;20051;-90
2023/09/15 08:00:29;;;;;;;14.23;9.13;;;17.30;99.90;;;;;;4942086;29;20122;-87
2023/09/15 08:03:19;;;;;;;13.65;8.63;;;17.30;2.60;;;;;;4948560;28;20763;-88
2023/09/15 08:06:08;;;;;;;10.93;7.85;;;17.60;99.90;;;;;;4956615;28;20058;-91
2023/09/15 08:09:00;;;;;;;10.60;8.30;;;18.10;99.90;;;;;;4937290;29;20534;-89
2023/09/15 08:11:47;;;;;;;14.38;8.73;;;18.60;99.90;;;;;;4943199;29;20059;-89
2023/09/15 08:14:34;;;;;;;11.40;7.60;;;19.00;1.00;;;;;;4938960;29;20373;-89
2023/09/15 08:17:21;;;;;;;9.38;7.20;;;19.40;99.90;;;;;;4939246;29;20050;-88
2023/09/15 08:20:20;;;;;;;6.75;5.78;;;20.20;99.90;;;;;;4937592;29;20047;-88
2023/09/15 08:23:07;;;;;;;9.27;6.07;;;21.20;1.00;;;;;;4937632;29;20495;-89
2023/09/15 08:25:54;;;;;;;7.85;5.47;;;21.80;99.90;;;;;;4936247;29;20048;-90
2023/09/15 08:28:44;;;;;;;6.90;6.10;;;22.40;72.70;;;;;;4939535;29;20047;-88
2023/09/15 08:31:32;;;;;;;7.63;5.47;;;22.80;1.00;;;;;;4933188;29;20047;-91
2023/09/15 08:34:19;;;;;;;6.70;5.03;;;23.40;1.00;;;;;;4933711;29;20048;-91
2023/09/15 08:37:09;;;;;;;6.28;5.30;;;24.00;1.00;;;;;;4935443;29;20056;-89
2023/09/15 08:39:56;;;;;;;8.13;4.90;;;24.40;99.90;;;;;;4944984;29;20054;-84
2023/09/15 08:43:01;;;;;;;6.05;4.93;;;25.10;99.90;;;;;;4937134;29;20061;-88
2023/09/15 08:45:50;;;;;;;8.27;4.53;;;25.30;99.90;;;;;;4947258;29;20047;-90
2023/09/15 08:48:40;;;;;;;5.85;5.25;;;25.60;99.90;;;;;;4924407;29;20100;-87
2023/09/15 08:51:32;;;;;;;7.82;5.43;;;25.60;99.90;;;;;;4952046;29;20055;-90
2023/09/15 08:54:19;;;;;;;7.68;4.95;;;25.20;99.90;;;;;;4951222;29;20045;-88
2023/09/15 08:57:06;;;;;;;7.22;5.05;;;25.50;99.90;;;;;;4932395;29;20059;-92
2023/09/15 08:59:54;;;;;;;9.23;5.05;;;26.20;99.90;;;;;;4938999;29;20179;-90
2023/09/15 09:02:52;;;;;;;8.35;4.53;;;26.80;99.90;;;;;;4931101;29;20174;-90
2023/09/15 09:05:46;;;;;;;5.07;4.57;;;27.30;99.90;;;;;;4939794;29;20044;-91
2023/09/15 09:08:35;;;;;;;7.70;4.90;;;27.40;99.90;;;;;;4942077;29;20369;-89
2023/09/15 09:11:23;;;;;;;6.13;4.90;;;27.50;99.90;;;;;;4935343;29;20658;-86
2023/09/15 09:14:12;;;;;;;7.50;5.22;;;28.00;99.90;;;;;;4941697;29;20043;-90
2023/09/15 09:17:01;;;;;;;5.20;4.70;;;27.40;99.90;;;;;;4935914;29;20044;-89
2023/09/15 09:19:50;;;;;;;6.22;4.45;;;27.40;99.90;;;;;;4943787;29;20044;-88
2023/09/15 09:22:37;;;;;;;5.53;4.28;;;27.70;99.90;;;;;;4937035;29;20079;-85
2023/09/15 09:25:26;;;;;;;4.75;4.13;;;28.40;99.90;;;;;;4943773;29;20100;-89
2023/09/15 09:28:22;;;;;;;7.53;4.38;;;28.90;99.90;;;;;;4944185;29;20052;-92
2023/09/15 09:31:10;;;;;;;5.40;4.07;;;29.30;99.90;;;;;;4934614;29;20058;-86
2023/09/15 09:34:01;;;;;;;4.80;4.20;;;29.50;99.90;;;;;;4941703;29;20065;-90
2023/09/15 09:36:52;;;;;;;6.53;4.88;;;29.40;93.20;;;;;;4938307;29;20076;-87
2023/09/15 09:39:39;;;;;;;4.90;4.10;;;30.00;92.00;;;;;;4937754;29;20055;-88
2023/09/15 09:42:28;;;;;;;5.88;4.72;;;30.30;80.00;;;;;;4948934;28;20684;-89
2023/09/15 09:45:17;;;;;;;4.82;4.40;;;30.30;67.10;;;;;;4943663;29;20047;-86
2023/09/15 09:48:04;;;;;;;6.80;4.13;;;30.30;53.80;;;;;;4953662;29;20063;-81
2023/09/15 09:50:55;;;;;;;4.95;4.40;;;30.00;46.60;;;;;;4947438;29;20051;-89
2023/09/15 09:53:43;;;;;;;6.40;4.72;;;30.00;37.50;;;;;;4949012;29;20428;-88
2023/09/15 09:56:36;;;;;;;7.07;5.13;;;29.60;32.90;;;;;;4947162;29;20040;-86
2023/09/15 09:59:23;;;;;;;6.85;4.78;;;29.50;29.40;;;;;;4945277;29;20601;-85
2023/09/15 10:02:11;;;;;;;4.47;4.07;;;29.60;27.90;;;;;;4934290;29;20115;-88
2023/09/15 10:05:00;;;;;;;8.30;4.60;;;30.10;21.60;;;;;;4933884;29;20517;-88
2023/09/15 10:07:51;;;;;;;6.85;4.70;;;29.80;22.60;;;;;;4937395;29;20421;-89
2023/09/15 10:10:46;;;;;;;5.07;4.57;;;30.10;19.50;;;;;;4943920;29;20047;-84
